sensor_id;sensor_type;location;lat;lon;timestamp;pressure;altitude;pressure_sealevel;temperature;humidity
13080;BME280;6606;49.154;9.280;2022-11-14T00:02:22;99708.63;;;2.91;100.00
13080;BME280;6606;49.154;9.280;2022-11-14T00:05:08;99703.97;;;3.07;100.00
13080;BME280;6606;49.154;9.280;2022-11-14T00:07:53;99710.84;;;3.13;100.00
13080;BME280;6606;49.154;9.280;2022-11-14T00:10:38;99693.84;;;3.32;100.00
13080;BME280;6606;49.154;9.280;2022-11-14T00:13:25;99693.53;;;3.47;100.00
13080;BME280;6606;49.154;9.280;2022-11-14T00:16:10;99692.47;;;3.56;100.00
13080;BME280;6606;49.154;9.280;2022-11-14T00:18:55;99698.47;;;3.63;100.00
13080;BME280;6606;49.154;9.280;2022-11-14T00:21:40;99696.59;;;3.68;100.00
13080;BME280;6606;49.154;9.280;2022-11-14T00:24:26;99701.69;;;3.74;100.00
13080;BME280;6606;49.154;9.280;2022-11-14T00:27:11;99697.25;;;3.78;100.00
13080;BME280;6606;49.154;9.280;2022-11-14T00:29:58;99697.97;;;3.84;100.00
13080;BME280;6606;49.154;9.280;2022-11-14T00:32:43;99692.69;;;3.86;100.00
13080;BME280;6606;49.154;9.280;2022-11-14T00:35:28;99690.63;;;4.00;100.00
13080;BME280;6606;49.154;9.280;2022-11-14T00:38:13;99687.84;;;4.06;100.00
13080;BME280;6606;49.154;9.280;2022-11-14T00:40:58;99698.25;;;4.11;100.00
13080;BME280;6606;49.154;9.280;2022-11-14T00:43:44;99690.47;;;4.08;100.00
13080;BME280;6606;49.154;9.280;2022-11-14T00:46:30;99691.00;;;4.21;100.00
13080;BME280;6606;49.154;9.280;2022-11-14T00:49:16;99703.72;;;4.37;100.00
13080;BME280;6606;49.154;9.280;2022-11-14T00:52:01;99696.91;;;4.30;100.00
13080;BME280;6606;49.154;9.280;2022-11-14T00:54:46;99689.38;;;4.15;100.00
13080;BME280;6606;49.154;9.280;2022-11-14T00:57:31;99692.56;;;4.29;100.00
13080;BME280;6606;49.154;9.280;2022-11-14T01:00:17;99680.72;;;4.13;100.00
13080;BME280;6606;49.154;9.280;2022-11-14T01:03:03;99687.69;;;4.14;100.00
13080;BME280;6606;49.154;9.280;2022-11-14T01:05:50;99686.84;;;4.12;100.00
13080;BME280;6606;49.154;9.280;2022-11-14T01:08:35;99676.94;;;4.23;100.00
13080;BME280;6606;49.154;9.280;2022-11-14T01:11:21;99680.13;;;4.37;100.00
13080;BME280;6606;49.154;9.280;2022-11-14T01:14:06;99671.06;;;4.49;100.00
13080;BME280;6606;49.154;9.280;2022-11-14T01:16:52;99672.72;;;4.53;100.00
13080;BME280;6606;49.154;9.280;2022-11-14T01:19:39;99664.88;;;4.52;100.00
13080;BME280;6606;49.154;9.280;2022-11-14T01:22:25;99654.47;;;4.49;100.00
13080;BME280;6606;49.154;9.280;2022-11-14T01:25:10;99664.66;;;4.61;100.00
13080;BME280;6606;49.154;9.280;2022-11-14T01:27:55;99671.38;;;4.71;100.00
13080;BME280;6606;49.154;9.280;2022-11-14T01:30:41;99677.38;;;4.76;100.00
13080;BME280;6606;49.154;9.280;2022-11-14T01:33:25;99673.56;;;4.87;100.00
13080;BME280;6606;49.154;9.280;2022-11-14T01:36:12;99664.31;;;4.73;100.00
13080;BME280;6606;49.154;9.280;2022-11-14T01:38:57;99654.63;;;4.75;100.00
13080;BME280;6606;49.154;9.280;2022-11-14T01:41:43;99659.59;;;4.86;100.00
13080;BME280;6606;49.154;9.280;2022-11-14T01:44:43;99654.97;;;4.94;100.00
13080;BME280;6606;49.154;9.280;2022-11-14T01:47:31;99651.19;;;5.06;100.00
13080;BME280;6606;49.154;9.280;2022-11-14T01:50:17;99644.06;;;5.10;100.00
13080;BME280;6606;49.154;9.280;2022-11-14T01:53:03;99642.16;;;5.15;100.00
13080;BME280;6606;49.154;9.280;2022-11-14T01:55:49;99629.63;;;5.24;100.00
13080;BME280;6606;49.154;9.280;2022-11-14T01:58:36;99626.81;;;5.31;100.00
13080;BME280;6606;49.154;9.280;2022-11-14T02:01:23;99619.75;;;5.33;100.00
13080;BME280;6606;49.154;9.280;2022-11-14T02:04:09;99617.97;;;5.33;100.00
13080;BME280;6606;49.154;9.280;2022-11-14T02:07:01;99615.06;;;5.42;100.00
13080;BME280;6606;49.154;9.280;2022-11-14T02:09:48;99623.28;;;5.32;100.00
13080;BME280;6606;49.154;9.280;2022-11-14T02:12:33;99619.22;;;5.21;100.00
13080;BME280;6606;49.154;9.280;2022-11-14T02:15:19;99613.88;;;5.24;100.00
13080;BME280;6606;49.154;9.280;2022-11-14T02:18:04;99610.41;;;5.22;100.00
13080;BME280;6606;49.154;9.280;2022-11-14T02:20:51;99611.88;;;5.33;100.00
13080;BME280;6606;49.154;9.280;2022-11-14T02:23:36;99591.56;;;5.38;100.00
13080;BME280;6606;49.154;9.280;2022-11-14T02:26:22;99585.41;;;5.39;100.00
13080;BME280;6606;49.154;9.280;2022-11-14T02:29:09;99583.78;;;5.35;100.00
13080;BME280;6606;49.154;9.280;2022-11-14T02:31:55;99580.28;;;5.34;100.00
13080;BME280;6606;49.154;9.280;2022-11-14T02:34:40;99583.47;;;5.45;100.00
13080;BME280;6606;49.154;9.280;2022-11-14T02:37:27;99569.34;;;5.48;100.00
13080;BME280;6606;49.154;9.280;2022-11-14T02:40:12;99569.44;;;5.45;100.00
13080;BME280;6606;49.154;9.280;2022-11-14T02:42:57;99587.03;;;5.43;100.00
13080;BME280;6606;49.154;9.280;2022-11-14T02:45:42;99587.31;;;5.62;100.00
13080;BME280;6606;49.154;9.280;2022-11-14T02:48:28;99585.53;;;5.62;100.00
13080;BME280;6606;49.154;9.280;2022-11-14T02:51:13;99586.81;;;5.50;100.00
13080;BME280;6606;49.154;9.280;2022-11-14T02:54:00;99588.06;;;5.65;100.00
13080;BME280;6606;49.154;9.280;2022-11-14T02:56:45;99584.72;;;5.60;100.00
13080;BME280;6606;49.154;9.280;2022-11-14T02:59:30;99581.97;;;5.65;100.00
13080;BME280;6606;49.154;9.280;2022-11-14T03:02:15;99577.69;;;5.61;100.00
13080;BME280;6606;49.154;9.280;2022-11-14T03:05:01;99579.19;;;5.69;100.00
13080;BME280;6606;49.154;9.280;2022-11-14T03:07:46;99584.25;;;5.76;100.00
13080;BME280;6606;49.154;9.280;2022-11-14T03:10:33;99591.03;;;5.83;100.00
13080;BME280;6606;49.154;9.280;2022-11-14T03:13:18;99602.69;;;5.74;100.00
13080;BME280;6606;49.154;9.280;2022-11-14T03:16:04;99600.03;;;5.76;100.00
13080;BME280;6606;49.154;9.280;2022-11-14T03:18:51;99595.44;;;5.82;100.00
13080;BME280;6606;49.154;9.280;2022-11-14T03:21:36;99592.75;;;5.84;100.00
13080;BME280;6606;49.154;9.280;2022-11-14T03:24:21;99596.09;;;5.89;100.00
13080;BME280;6606;49.154;9.280;2022-11-14T03:27:08;99583.88;;;5.88;100.00
13080;BME280;6606;49.154;9.280;2022-11-14T03:29:53;99576.69;;;5.93;100.00
13080;BME280;6606;49.154;9.280;2022-11-14T03:32:38;99569.78;;;5.89;100.00
13080;BME280;6606;49.154;9.280;2022-11-14T03:35:23;99559.59;;;5.80;100.00
13080;BME280;6606;49.154;9.280;2022-11-14T03:38:09;99562.81;;;5.88;100.00
13080;BME280;6606;49.154;9.280;2022-11-14T03:40:56;99547.03;;;5.88;100.00
13080;BME280;6606;49.154;9.280;2022-11-14T03:43:43;99552.72;;;5.74;100.00
13080;BME280;6606;49.154;9.280;2022-11-14T03:46:28;99558.19;;;5.68;100.00
13080;BME280;6606;49.154;9.280;2022-11-14T03:49:13;99549.44;;;5.67;100.00
13080;BME280;6606;49.154;9.280;2022-11-14T03:51:59;99551.28;;;5.65;100.00
13080;BME280;6606;49.154;9.280;2022-11-14T03:54:44;99542.56;;;5.63;100.00
13080;BME280;6606;49.154;9.280;2022-11-14T03:57:29;99539.94;;;5.63;100.00
13080;BME280;6606;49.154;9.280;2022-11-14T04:00:17;99522.69;;;5.55;100.00
13080;BME280;6606;49.154;9.280;2022-11-14T04:03:02;99522.31;;;5.39;100.00
13080;BME280;6606;49.154;9.280;2022-11-14T04:05:48;99528.94;;;5.24;100.00
13080;BME280;6606;49.154;9.280;2022-11-14T04:08:33;99525.09;;;5.06;100.00
13080;BME280;6606;49.154;9.280;2022-11-14T04:11:19;99539.59;;;4.90;100.00
13080;BME280;6606;49.154;9.280;2022-11-14T04:14:04;99545.22;;;4.76;100.00
13080;BME280;6606;49.154;9.280;2022-11-14T04:16:51;99553.28;;;4.70;100.00
13080;BME280;6606;49.154;9.280;2022-11-14T04:19:36;99570.25;;;4.58;100.00
13080;BME280;6606;49.154;9.280;2022-11-14T04:22:21;99559.97;;;4.49;100.00
13080;BME280;6606;49.154;9.280;2022-11-14T04:25:07;99561.19;;;4.37;100.00
13080;BME280;6606;49.154;9.280;2022-11-14T04:27:53;99566.72;;;4.26;100.00
13080;BME280;6606;49.154;9.280;2022-11-14T04:30:38;99559.81;;;4.22;100.00
13080;BME280;6606;49.154;9.280;2022-11-14T04:33:25;99550.38;;;4.15;100.00
13080;BME280;6606;49.154;9.280;2022-11-14T04:36:10;99541.00;;;4.06;100.00
13080;BME280;6606;49.154;9.280;2022-11-14T04:38:55;99549.16;;;3.95;100.00
13080;BME280;6606;49.154;9.280;2022-11-14T04:41:40;99563.75;;;3.70;100.00
13080;BME280;6606;49.154;9.280;2022-11-14T04:44:25;99573.59;;;3.60;100.00
13080;BME280;6606;49.154;9.280;2022-11-14T04:47:11;99568.28;;;3.63;100.00
13080;BME280;6606;49.154;9.280;2022-11-14T04:49:57;99570.81;;;3.66;100.00
13080;BME280;6606;49.154;9.280;2022-11-14T04:52:43;99565.66;;;3.63;100.00
13080;BME280;6606;49.154;9.280;2022-11-14T04:55:28;99564.84;;;3.61;100.00
13080;BME280;6606;49.154;9.280;2022-11-14T04:58:13;99553.69;;;3.51;100.00
13080;BME280;6606;49.154;9.280;2022-11-14T05:00:59;99540.97;;;3.36;100.00
13080;BME280;6606;49.154;9.280;2022-11-14T05:03:44;99522.66;;;3.36;100.00
13080;BME280;6606;49.154;9.280;2022-11-14T05:06:30;99524.53;;;3.29;100.00
13080;BME280;6606;49.154;9.280;2022-11-14T05:09:16;99519.47;;;3.22;100.00
13080;BME280;6606;49.154;9.280;2022-11-14T05:12:01;99518.50;;;3.26;100.00
13080;BME280;6606;49.154;9.280;2022-11-14T05:14:46;99496.38;;;3.39;100.00
13080;BME280;6606;49.154;9.280;2022-11-14T05:17:31;99510.16;;;3.47;100.00
13080;BME280;6606;49.154;9.280;2022-11-14T05:20:17;99512.72;;;3.49;100.00
13080;BME280;6606;49.154;9.280;2022-11-14T05:23:04;99507.56;;;3.46;100.00
13080;BME280;6606;49.154;9.280;2022-11-14T05:25:58;99514.53;;;3.47;100.00
13080;BME280;6606;49.154;9.280;2022-11-14T05:28:43;99514.56;;;3.45;100.00
13080;BME280;6606;49.154;9.280;2022-11-14T05:31:28;99521.72;;;3.39;100.00
13080;BME280;6606;49.154;9.280;2022-11-14T05:34:13;99522.91;;;3.24;100.00
13080;BME280;6606;49.154;9.280;2022-11-14T05:36:59;99519.38;;;3.25;100.00
13080;BME280;6606;49.154;9.280;2022-11-14T05:39:47;99519.28;;;3.31;100.00
13080;BME280;6606;49.154;9.280;2022-11-14T05:42:33;99503.59;;;3.28;100.00
13080;BME280;6606;49.154;9.280;2022-11-14T05:45:18;99500.25;;;3.23;100.00
13080;BME280;6606;49.154;9.280;2022-11-14T05:48:04;99510.84;;;3.17;100.00
13080;BME280;6606;49.154;9.280;2022-11-14T05:50:53;99510.22;;;3.07;100.00
13080;BME280;6606;49.154;9.280;2022-11-14T05:53:38;99505.75;;;3.11;100.00
13080;BME280;6606;49.154;9.280;2022-11-14T05:56:25;99504.03;;;3.09;100.00
13080;BME280;6606;49.154;9.280;2022-11-14T05:59:10;99511.16;;;3.04;100.00
13080;BME280;6606;49.154;9.280;2022-11-14T06:01:56;99521.66;;;3.01;100.00
13080;BME280;6606;49.154;9.280;2022-11-14T06:04:41;99526.91;;;3.01;100.00
13080;BME280;6606;49.154;9.280;2022-11-14T06:07:27;99526.97;;;2.98;100.00
13080;BME280;6606;49.154;9.280;2022-11-14T06:10:12;99530.59;;;2.93;100.00
13080;BME280;6606;49.154;9.280;2022-11-14T06:12:59;99522.78;;;2.91;100.00
13080;BME280;6606;49.154;9.280;2022-11-14T06:15:44;99515.03;;;2.85;100.00
13080;BME280;6606;49.154;9.280;2022-11-14T06:18:30;99522.78;;;2.91;100.00
13080;BME280;6606;49.154;9.280;2022-11-14T06:21:18;99528.91;;;2.90;100.00
13080;BME280;6606;49.154;9.280;2022-11-14T06:24:04;99524.59;;;2.88;100.00
13080;BME280;6606;49.154;9.280;2022-11-14T06:26:49;99522.72;;;2.93;100.00
13080;BME280;6606;49.154;9.280;2022-11-14T06:29:36;99518.50;;;2.87;100.00
13080;BME280;6606;49.154;9.280;2022-11-14T06:32:21;99520.22;;;2.88;100.00
13080;BME280;6606;49.154;9.280;2022-11-14T06:35:07;99515.13;;;2.80;100.00
13080;BME280;6606;49.154;9.280;2022-11-14T06:37:52;99529.88;;;2.86;100.00
13080;BME280;6606;49.154;9.280;2022-11-14T06:40:38;99530.69;;;2.88;100.00
13080;BME280;6606;49.154;9.280;2022-11-14T06:43:23;99526.34;;;2.87;100.00
13080;BME280;6606;49.154;9.280;2022-11-14T06:46:11;99525.44;;;2.88;100.00
13080;BME280;6606;49.154;9.280;2022-11-14T06:48:56;99520.13;;;2.93;100.00
13080;BME280;6606;49.154;9.280;2022-11-14T06:51:42;99526.19;;;2.95;100.00
13080;BME280;6606;49.154;9.280;2022-11-14T06:54:27;99519.16;;;2.97;100.00
13080;BME280;6606;49.154;9.280;2022-11-14T06:57:12;99523.31;;;3.05;100.00
13080;BME280;6606;49.154;9.280;2022-11-14T06:59:58;99528.63;;;3.02;100.00
13080;BME280;6606;49.154;9.280;2022-11-14T07:02:46;99531.84;;;3.15;100.00
13080;BME280;6606;49.154;9.280;2022-11-14T07:05:31;99529.00;;;3.26;100.00
13080;BME280;6606;49.154;9.280;2022-11-14T07:08:16;99538.28;;;3.39;100.00
13080;BME280;6606;49.154;9.280;2022-11-14T07:11:03;99542.25;;;3.56;100.00
13080;BME280;6606;49.154;9.280;2022-11-14T07:13:49;99544.59;;;3.68;100.00
13080;BME280;6606;49.154;9.280;2022-11-14T07:16:35;99534.34;;;3.93;100.00
13080;BME280;6606;49.154;9.280;2022-11-14T07:19:21;99545.22;;;4.12;100.00
13080;BME280;6606;49.154;9.280;2022-11-14T07:22:07;99544.66;;;4.33;100.00
13080;BME280;6606;49.154;9.280;2022-11-14T07:24:52;99546.53;;;4.61;100.00
13080;BME280;6606;49.154;9.280;2022-11-14T07:27:37;99552.13;;;4.80;100.00
13080;BME280;6606;49.154;9.280;2022-11-14T07:30:23;99556.13;;;4.92;100.00
13080;BME280;6606;49.154;9.280;2022-11-14T07:33:08;99557.91;;;4.91;100.00
13080;BME280;6606;49.154;9.280;2022-11-14T07:35:55;99566.63;;;4.93;100.00
13080;BME280;6606;49.154;9.280;2022-11-14T07:38:41;99559.34;;;4.72;100.00
13080;BME280;6606;49.154;9.280;2022-11-14T07:41:26;99560.19;;;4.74;100.00
13080;BME280;6606;49.154;9.280;2022-11-14T07:44:12;99570.31;;;4.86;100.00
13080;BME280;6606;49.154;9.280;2022-11-14T07:46:57;99554.69;;;4.81;100.00
13080;BME280;6606;49.154;9.280;2022-11-14T07:49:42;99553.72;;;4.84;100.00
13080;BME280;6606;49.154;9.280;2022-11-14T07:52:29;99558.97;;;4.85;100.00
13080;BME280;6606;49.154;9.280;2022-11-14T07:55:15;99567.91;;;4.78;100.00
13080;BME280;6606;49.154;9.280;2022-11-14T07:58:00;99571.47;;;4.76;100.00
13080;BME280;6606;49.154;9.280;2022-11-14T08:00:46;99577.66;;;4.73;100.00
13080;BME280;6606;49.154;9.280;2022-11-14T08:03:31;99582.06;;;4.73;100.00
13080;BME280;6606;49.154;9.280;2022-11-14T08:06:17;99584.66;;;4.74;100.00
13080;BME280;6606;49.154;9.280;2022-11-14T08:09:03;99580.66;;;4.61;100.00
13080;BME280;6606;49.154;9.280;2022-11-14T08:11:49;99581.00;;;4.80;100.00
13080;BME280;6606;49.154;9.280;2022-11-14T08:14:34;99580.72;;;4.89;100.00
13080;BME280;6606;49.154;9.280;2022-11-14T08:17:20;99584.94;;;4.95;100.00
13080;BME280;6606;49.154;9.280;2022-11-14T08:20:07;99584.16;;;4.91;100.00
13080;BME280;6606;49.154;9.280;2022-11-14T08:22:52;99582.88;;;5.06;100.00
13080;BME280;6606;49.154;9.280;2022-11-14T08:25:39;99582.88;;;5.06;100.00
13080;BME280;6606;49.154;9.280;2022-11-14T08:28:25;99576.84;;;5.02;100.00
13080;BME280;6606;49.154;9.280;2022-11-14T08:31:10;99571.44;;;5.37;100.00
13080;BME280;6606;49.154;9.280;2022-11-14T08:33:56;99581.09;;;5.06;100.00
13080;BME280;6606;49.154;9.280;2022-11-14T08:36:42;99590.59;;;5.11;100.00
13080;BME280;6606;49.154;9.280;2022-11-14T08:39:27;99586.91;;;5.18;100.00
13080;BME280;6606;49.154;9.280;2022-11-14T08:42:14;99578.66;;;5.58;100.00
13080;BME280;6606;49.154;9.280;2022-11-14T08:44:59;99567.38;;;5.83;100.00
13080;BME280;6606;49.154;9.280;2022-11-14T08:47:52;99564.63;;;6.14;100.00
13080;BME280;6606;49.154;9.280;2022-11-14T08:50:37;99577.81;;;6.12;100.00
13080;BME280;6606;49.154;9.280;2022-11-14T08:53:22;99573.63;;;6.32;100.00
13080;BME280;6606;49.154;9.280;2022-11-14T08:56:08;99573.63;;;6.32;100.00
13080;BME280;6606;49.154;9.280;2022-11-14T08:58:55;99569.78;;;6.42;100.00
13080;BME280;6606;49.154;9.280;2022-11-14T09:01:41;99560.34;;;6.62;100.00
13080;BME280;6606;49.154;9.280;2022-11-14T09:04:26;99568.47;;;6.79;100.00
13080;BME280;6606;49.154;9.280;2022-11-14T09:07:11;99560.13;;;6.66;100.00
13080;BME280;6606;49.154;9.280;2022-11-14T09:09:56;99567.19;;;6.66;100.00
13080;BME280;6606;49.154;9.280;2022-11-14T09:12:42;99570.94;;;6.83;100.00
13080;BME280;6606;49.154;9.280;2022-11-14T09:15:29;99572.06;;;6.76;100.00
13080;BME280;6606;49.154;9.280;2022-11-14T09:18:14;99571.47;;;6.93;100.00
13080;BME280;6606;49.154;9.280;2022-11-14T09:21:00;99571.72;;;6.62;100.00
13080;BME280;6606;49.154;9.280;2022-11-14T09:23:46;99569.47;;;6.51;100.00
13080;BME280;6606;49.154;9.280;2022-11-14T09:26:31;99568.22;;;7.09;100.00
13080;BME280;6606;49.154;9.280;2022-11-14T09:29:17;99566.50;;;7.31;100.00
13080;BME280;6606;49.154;9.280;2022-11-14T09:32:03;99563.28;;;7.46;100.00
13080;BME280;6606;49.154;9.280;2022-11-14T09:34:49;99562.94;;;7.32;100.00
13080;BME280;6606;49.154;9.280;2022-11-14T09:37:34;99572.09;;;7.45;100.00
13080;BME280;6606;49.154;9.280;2022-11-14T09:40:20;99559.84;;;7.44;100.00
13080;BME280;6606;49.154;9.280;2022-11-14T09:43:17;99563.34;;;7.45;100.00
13080;BME280;6606;49.154;9.280;2022-11-14T09:46:16;99559.66;;;7.49;100.00
13080;BME280;6606;49.154;9.280;2022-11-14T09:49:08;99559.28;;;7.36;100.00
13080;BME280;6606;49.154;9.280;2022-11-14T09:51:59;99562.09;;;7.54;100.00
13080;BME280;6606;49.154;9.280;2022-11-14T09:54:50;99554.00;;;7.80;100.00
13080;BME280;6606;49.154;9.280;2022-11-14T09:57:36;99558.34;;;7.59;100.00
13080;BME280;6606;49.154;9.280;2022-11-14T10:00:23;99553.22;;;7.78;100.00
13080;BME280;6606;49.154;9.280;2022-11-14T10:03:15;99549.94;;;7.93;100.00
13080;BME280;6606;49.154;9.280;2022-11-14T10:06:16;99547.63;;;8.28;100.00
13080;BME280;6606;49.154;9.280;2022-11-14T10:09:20;99549.53;;;8.66;100.00
13080;BME280;6606;49.154;9.280;2022-11-14T10:12:13;99534.56;;;8.85;100.00
13080;BME280;6606;49.154;9.280;2022-11-14T10:15:12;99524.28;;;8.98;100.00
13080;BME280;6606;49.154;9.280;2022-11-14T10:18:09;99523.13;;;9.22;100.00
13080;BME280;6606;49.154;9.280;2022-11-14T10:20:57;99515.13;;;9.43;100.00
13080;BME280;6606;49.154;9.280;2022-11-14T10:23:54;99504.81;;;9.56;100.00
13080;BME280;6606;49.154;9.280;2022-11-14T10:26:50;99498.03;;;9.67;100.00
13080;BME280;6606;49.154;9.280;2022-11-14T10:29:54;99501.41;;;9.88;100.00
13080;BME280;6606;49.154;9.280;2022-11-14T10:33:12;99491.38;;;10.30;100.00
13080;BME280;6606;49.154;9.280;2022-11-14T10:36:05;99485.88;;;10.50;100.00
13080;BME280;6606;49.154;9.280;2022-11-14T10:39:02;99477.13;;;10.66;100.00
13080;BME280;6606;49.154;9.280;2022-11-14T10:41:51;99476.47;;;10.94;100.00
13080;BME280;6606;49.154;9.280;2022-11-14T10:44:45;99480.94;;;11.25;100.00
13080;BME280;6606;49.154;9.280;2022-11-14T10:47:37;99481.66;;;11.59;100.00
13080;BME280;6606;49.154;9.280;2022-11-14T10:50:27;99479.91;;;11.43;100.00
13080;BME280;6606;49.154;9.280;2022-11-14T10:53:24;99478.47;;;11.38;100.00
13080;BME280;6606;49.154;9.280;2022-11-14T10:56:13;99489.22;;;11.19;100.00
13080;BME280;6606;49.154;9.280;2022-11-14T10:58:58;99484.19;;;10.98;100.00
13080;BME280;6606;49.154;9.280;2022-11-14T11:01:51;99478.38;;;11.08;100.00
13080;BME280;6606;49.154;9.280;2022-11-14T11:04:39;99473.91;;;11.40;100.00
13080;BME280;6606;49.154;9.280;2022-11-14T11:07:25;99481.25;;;11.51;100.00
13080;BME280;6606;49.154;9.280;2022-11-14T11:10:30;99479.03;;;11.43;100.00
13080;BME280;6606;49.154;9.280;2022-11-14T11:13:39;99470.31;;;11.57;100.00
13080;BME280;6606;49.154;9.280;2022-11-14T11:16:31;99463.03;;;11.91;100.00
13080;BME280;6606;49.154;9.280;2022-11-14T11:19:22;99460.81;;;12.13;100.00
13080;BME280;6606;49.154;9.280;2022-11-14T11:22:26;99464.06;;;12.32;100.00
13080;BME280;6606;49.154;9.280;2022-11-14T11:25:23;99466.75;;;12.47;100.00
13080;BME280;6606;49.154;9.280;2022-11-14T11:28:14;99466.38;;;12.39;100.00
13080;BME280;6606;49.154;9.280;2022-11-14T11:31:03;99465.56;;;12.22;100.00
13080;BME280;6606;49.154;9.280;2022-11-14T11:33:49;99457.59;;;12.08;100.00
13080;BME280;6606;49.154;9.280;2022-11-14T11:36:38;99459.97;;;12.13;100.00
13080;BME280;6606;49.154;9.280;2022-11-14T11:39:28;99454.16;;;12.06;100.00
13080;BME280;6606;49.154;9.280;2022-11-14T11:42:16;99458.28;;;12.26;100.00
13080;BME280;6606;49.154;9.280;2022-11-14T11:45:06;99452.63;;;12.46;100.00
13080;BME280;6606;49.154;9.280;2022-11-14T11:48:00;99455.34;;;12.59;100.00
13080;BME280;6606;49.154;9.280;2022-11-14T11:50:46;99435.78;;;12.89;100.00
13080;BME280;6606;49.154;9.280;2022-11-14T11:53:35;99435.38;;;13.22;100.00
13080;BME280;6606;49.154;9.280;2022-11-14T11:56:25;99434.47;;;13.23;100.00
13080;BME280;6606;49.154;9.280;2022-11-14T11:59:23;99432.72;;;13.36;100.00
13080;BME280;6606;49.154;9.280;2022-11-14T12:02:20;99438.19;;;13.48;100.00
13080;BME280;6606;49.154;9.280;2022-11-14T12:05:12;99429.19;;;13.76;100.00
13080;BME280;6606;49.154;9.280;2022-11-14T12:08:00;99433.47;;;13.66;100.00
13080;BME280;6606;49.154;9.280;2022-11-14T12:10:47;99441.63;;;13.62;100.00
13080;BME280;6606;49.154;9.280;2022-11-14T12:13:55;99437.13;;;13.50;100.00
13080;BME280;6606;49.154;9.280;2022-11-14T12:17:02;99435.81;;;13.43;100.00
13080;BME280;6606;49.154;9.280;2022-11-14T12:20:13;99429.81;;;13.27;100.00
13080;BME280;6606;49.154;9.280;2022-11-14T12:23:14;99429.41;;;13.33;100.00
13080;BME280;6606;49.154;9.280;2022-11-14T12:26:17;99435.69;;;13.17;100.00
13080;BME280;6606;49.154;9.280;2022-11-14T12:29:28;99423.19;;;13.05;100.00
13080;BME280;6606;49.154;9.280;2022-11-14T12:32:26;99430.31;;;13.05;100.00
13080;BME280;6606;49.154;9.280;2022-11-14T12:35:17;99419.91;;;13.29;100.00
13080;BME280;6606;49.154;9.280;2022-11-14T12:38:13;99420.16;;;12.97;100.00
13080;BME280;6606;49.154;9.280;2022-11-14T12:40:59;99424.53;;;12.98;100.00
13080;BME280;6606;49.154;9.280;2022-11-14T12:43:45;99416.66;;;12.82;100.00
13080;BME280;6606;49.154;9.280;2022-11-14T12:47:14;99418.69;;;12.79;100.00
13080;BME280;6606;49.154;9.280;2022-11-14T12:53:40;99421.31;;;12.93;100.00
13080;BME280;6606;49.154;9.280;2022-11-14T12:56:49;99422.63;;;13.00;100.00
13080;BME280;6606;49.154;9.280;2022-11-14T12:59:48;99419.56;;;13.06;100.00
13080;BME280;6606;49.154;9.280;2022-11-14T13:06:08;99419.47;;;13.08;100.00
13080;BME280;6606;49.154;9.280;2022-11-14T13:12:31;99405.28;;;14.01;100.00
13080;BME280;6606;49.154;9.280;2022-11-14T13:15:46;99401.44;;;14.31;100.00
13080;BME280;6606;49.154;9.280;2022-11-14T13:18:52;99396.22;;;14.42;100.00
13080;BME280;6606;49.154;9.280;2022-11-14T13:25:22;99403.69;;;14.37;100.00
13080;BME280;6606;49.154;9.280;2022-11-14T13:28:45;99395.69;;;14.12;100.00
13080;BME280;6606;49.154;9.280;2022-11-14T13:31:43;99385.03;;;14.24;100.00
13080;BME280;6606;49.154;9.280;2022-11-14T13:34:40;99390.66;;;14.20;100.00
13080;BME280;6606;49.154;9.280;2022-11-14T13:37:52;99387.81;;;13.97;100.00
13080;BME280;6606;49.154;9.280;2022-11-14T13:40:48;99378.63;;;14.01;100.00
13080;BME280;6606;49.154;9.280;2022-11-14T13:43:44;99376.16;;;13.98;100.00
13080;BME280;6606;49.154;9.280;2022-11-14T13:46:43;99372.59;;;13.59;100.00
13080;BME280;6606;49.154;9.280;2022-11-14T13:49:46;99380.31;;;13.77;100.00
13080;BME280;6606;49.154;9.280;2022-11-14T13:52:39;99383.06;;;13.75;100.00
13080;BME280;6606;49.154;9.280;2022-11-14T13:55:31;99393.34;;;13.81;100.00
13080;BME280;6606;49.154;9.280;2022-11-14T13:58:29;99383.06;;;13.75;100.00
13080;BME280;6606;49.154;9.280;2022-11-14T14:01:33;99384.56;;;13.67;100.00
13080;BME280;6606;49.154;9.280;2022-11-14T14:04:37;99376.03;;;13.61;100.00
13080;BME280;6606;49.154;9.280;2022-11-14T14:07:31;99380.72;;;13.58;100.00
13080;BME280;6606;49.154;9.280;2022-11-14T14:10:26;99381.13;;;13.64;100.00
13080;BME280;6606;49.154;9.280;2022-11-14T14:13:28;99378.41;;;13.79;100.00
13080;BME280;6606;49.154;9.280;2022-11-14T14:16:27;99368.38;;;13.70;100.00
13080;BME280;6606;49.154;9.280;2022-11-14T14:19:21;99376.25;;;13.71;100.00
13080;BME280;6606;49.154;9.280;2022-11-14T14:22:16;99368.38;;;13.70;100.00
13080;BME280;6606;49.154;9.280;2022-11-14T14:25:12;99375.81;;;13.64;100.00
13080;BME280;6606;49.154;9.280;2022-11-14T14:28:08;99368.56;;;13.67;100.00
13080;BME280;6606;49.154;9.280;2022-11-14T14:31:09;99366.13;;;13.63;100.00
13080;BME280;6606;49.154;9.280;2022-11-14T14:33:55;99367.72;;;13.66;100.00
13080;BME280;6606;49.154;9.280;2022-11-14T14:36:48;99371.78;;;13.72;100.00
13080;BME280;6606;49.154;9.280;2022-11-14T14:39:33;99367.06;;;13.62;100.00
13080;BME280;6606;49.154;9.280;2022-11-14T14:42:18;99376.25;;;13.58;100.00
13080;BME280;6606;49.154;9.280;2022-11-14T14:45:13;99380.06;;;13.67;100.00
13080;BME280;6606;49.154;9.280;2022-11-14T14:48:02;99381.56;;;13.58;100.00
13080;BME280;6606;49.154;9.280;2022-11-14T14:50:49;99381.63;;;13.44;100.00
13080;BME280;6606;49.154;9.280;2022-11-14T14:53:35;99383.94;;;13.36;100.00
13080;BME280;6606;49.154;9.280;2022-11-14T14:56:22;99388.31;;;13.37;100.00
13080;BME280;6606;49.154;9.280;2022-11-14T14:59:18;99388.31;;;13.37;100.00
13080;BME280;6606;49.154;9.280;2022-11-14T15:02:11;99385.25;;;13.43;100.00
13080;BME280;6606;49.154;9.280;2022-11-14T15:04:59;99384.97;;;13.60;100.00
13080;BME280;6606;49.154;9.280;2022-11-14T15:07:45;99390.31;;;13.60;100.00
13080;BME280;6606;49.154;9.280;2022-11-14T15:10:32;99386.69;;;13.61;100.00
13080;BME280;6606;49.154;9.280;2022-11-14T15:13:18;99376.66;;;13.65;100.00
13080;BME280;6606;49.154;9.280;2022-11-14T15:16:04;99387.50;;;13.49;100.00
13080;BME280;6606;49.154;9.280;2022-11-14T15:18:51;99382.50;;;13.57;100.00